createdAt,value
2019-03-03T00:01:18.928Z,5.8
2019-03-03T00:06:46.607Z,5.8
2019-03-03T00:12:14.299Z,5.9
2019-03-03T00:17:43.050Z,5.9
2019-03-03T00:23:11.783Z,6
2019-03-03T00:28:40.774Z,6.1
2019-03-03T00:34:09.307Z,6.2
2019-03-03T00:39:37.142Z,6.3
2019-03-03T00:45:05.855Z,6.4
2019-03-03T00:50:34.670Z,6.4
2019-03-03T00:56:02.491Z,6.5
2019-03-03T01:01:31.344Z,6.6
2019-03-03T01:06:59.058Z,6.7
2019-03-03T01:12:26.899Z,6.8
2019-03-03T01:17:54.740Z,6.8
2019-03-03T01:23:22.632Z,6.9
2019-03-03T01:28:50.439Z,7
2019-03-03T01:34:18.157Z,7
2019-03-03T01:39:47.047Z,7.1
2019-03-03T01:45:15.833Z,7.1
2019-03-03T01:50:44.727Z,7.1
2019-03-03T01:56:12.527Z,7.2
2019-03-03T02:01:40.411Z,7.2
2019-03-03T02:07:09.232Z,7.2
2019-03-03T02:12:38.064Z,7.2
2019-03-03T02:18:06.945Z,7.2
2019-03-03T02:23:34.764Z,7.2
2019-03-03T02:29:03.549Z,7.2
2019-03-03T02:34:31.546Z,7.3
2019-03-03T02:40:00.621Z,7.3
2019-03-03T02:45:28.100Z,7.3
2019-03-03T02:50:56.999Z,7.3
2019-03-03T02:56:25.835Z,7.3
2019-03-03T03:01:54.793Z,7.3
2019-03-03T03:07:23.561Z,7.3
2019-03-03T03:12:52.376Z,7.3
2019-03-03T03:18:20.312Z,7.3
2019-03-03T03:23:49.119Z,7.3
2019-03-03T03:29:16.960Z,7.3
2019-03-03T03:34:45.798Z,7.3
2019-03-03T03:40:14.620Z,7.3
2019-03-03T03:45:42.469Z,7.3
2019-03-03T03:51:10.672Z,7.2
2019-03-03T03:56:38.182Z,7.2
2019-03-03T04:02:07.132Z,7.2
2019-03-03T04:07:34.870Z,7.2
2019-03-03T04:13:03.699Z,7.2
2019-03-03T04:18:32.529Z,7.2
2019-03-03T04:24:01.476Z,7.2
2019-03-03T04:29:30.550Z,7.2
2019-03-03T04:34:58.041Z,7.2
2019-03-03T04:40:26.851Z,7.3
2019-03-03T04:45:55.705Z,7.3
2019-03-03T04:51:23.516Z,7.3
2019-03-03T04:56:51.412Z,7.3
2019-03-03T05:02:20.433Z,7.3
2019-03-03T05:07:48.052Z,7.3
2019-03-03T05:13:16.931Z,7.4
2019-03-03T05:18:45.778Z,7.4
2019-03-03T05:24:13.616Z,7.4
2019-03-03T05:29:42.476Z,7.4
2019-03-03T05:35:10.368Z,7.4
2019-03-03T05:40:39.206Z,7.4
2019-03-03T05:46:08.048Z,7.5
2019-03-03T05:51:36.904Z,7.5
2019-03-03T05:57:05.771Z,7.5
2019-03-03T06:02:34.594Z,7.5
2019-03-03T06:08:02.590Z,7.5
2019-03-03T06:13:31.412Z,7.5
2019-03-03T06:18:59.177Z,7.5
2019-03-03T06:24:28.098Z,7.5
2019-03-03T06:29:57.601Z,7.5
2019-03-03T06:35:24.867Z,7.5
2019-03-03T06:40:52.668Z,7.5
2019-03-03T06:46:20.720Z,7.5
2019-03-03T06:51:49.414Z,7.5
2019-03-03T06:57:17.248Z,7.5
2019-03-03T07:02:46.103Z,7.5
2019-03-03T07:08:15.067Z,7.5
2019-03-03T07:24:41.519Z,7.5
2019-03-03T07:30:09.342Z,7.5
2019-03-03T07:35:37.204Z,7.5
2019-03-03T07:41:05.099Z,7.5
2019-03-03T07:46:32.917Z,7.5
2019-03-03T07:52:01.251Z,7.5
2019-03-03T07:57:29.667Z,7.5
2019-03-03T08:02:58.491Z,7.5
2019-03-03T08:08:27.325Z,7.5
2019-03-03T08:13:56.258Z,7.6
2019-03-03T08:19:24.087Z,7.6
2019-03-03T08:24:52.849Z,7.6
2019-03-03T08:30:20.807Z,7.6
2019-03-03T08:35:48.591Z,7.7
2019-03-03T08:41:16.474Z,7.7
2019-03-03T08:46:45.308Z,7.7
2019-03-03T08:52:14.211Z,7.7
2019-03-03T08:57:43.083Z,7.8
2019-03-03T09:03:12.254Z,7.8
2019-03-03T09:08:40.809Z,7.8
2019-03-03T09:14:08.778Z,7.9
2019-03-03T09:19:37.584Z,7.9
2019-03-03T09:25:06.553Z,8.1
2019-03-03T09:30:35.389Z,8.2
2019-03-03T09:36:04.370Z,8.2
2019-03-03T09:41:33.247Z,8.3
2019-03-03T09:47:02.163Z,8.3
2019-03-03T09:52:31.035Z,8.2
2019-03-03T09:57:59.956Z,8.2
2019-03-03T10:03:28.847Z,8.3
2019-03-03T10:08:56.796Z,8.3
2019-03-03T10:14:24.693Z,8.4
2019-03-03T10:19:52.638Z,8.5
2019-03-03T10:25:20.592Z,8.5
2019-03-03T10:30:49.592Z,8.6
2019-03-03T10:36:18.481Z,8.6
2019-03-03T10:41:47.516Z,8.7
2019-03-03T10:47:15.320Z,8.8
2019-03-03T10:52:44.547Z,8.8
2019-03-03T10:58:12.309Z,8.9
2019-03-03T11:03:40.429Z,8.9
2019-03-03T11:09:09.215Z,9
2019-03-03T11:14:37.165Z,9
2019-03-03T11:20:06.147Z,8.9
2019-03-03T11:25:35.079Z,8.9
2019-03-03T11:31:04.106Z,8.9
2019-03-03T11:36:33.035Z,8.9
2019-03-03T11:42:00.984Z,8.8
2019-03-03T11:47:28.950Z,8.8
2019-03-03T11:52:56.965Z,8.8
2019-03-03T11:58:25.861Z,8.9
2019-03-03T12:03:53.812Z,8.9
2019-03-03T12:09:22.478Z,8.9
2019-03-03T12:14:49.754Z,8.9
2019-03-03T12:20:18.710Z,9
2019-03-03T12:25:46.693Z,8.9
2019-03-03T12:31:14.614Z,8.9
2019-03-03T12:36:42.609Z,8.8
2019-03-03T12:42:10.549Z,8.7
2019-03-03T12:47:38.501Z,8.7
2019-03-03T12:53:06.434Z,8.8
2019-03-03T12:58:35.357Z,8.8
2019-03-03T13:04:03.316Z,8.8
2019-03-03T13:09:31.387Z,8.8
2019-03-03T13:14:59.250Z,8.8
2019-03-03T13:20:27.174Z,8.8
2019-03-03T13:25:56.202Z,8.8
2019-03-03T13:31:25.106Z,8.8
2019-03-03T13:36:54.150Z,8.8
2019-03-03T13:42:22.095Z,8.7
2019-03-03T13:47:51.009Z,8.7
2019-03-03T13:53:18.921Z,8.6
2019-03-03T13:58:46.873Z,8.6
2019-03-03T14:04:20.985Z,8.6
2019-03-03T14:09:44.782Z,8.6
2019-03-03T14:15:13.733Z,8.5
2019-03-03T14:20:42.620Z,8.5
2019-03-03T14:26:11.553Z,8.5
2019-03-03T14:31:41.057Z,8.4
2019-03-03T14:37:08.402Z,8.4
2019-03-03T14:42:38.506Z,8.3
2019-03-03T14:48:06.330Z,8.3
2019-03-03T14:53:34.143Z,8.3
2019-03-03T14:59:02.045Z,8.4
2019-03-03T15:04:30.977Z,8.3
2019-03-03T15:09:59.855Z,8.3
2019-03-03T15:15:27.856Z,8.2
2019-03-03T15:20:56.680Z,8.2
2019-03-03T15:26:24.573Z,8.2
2019-03-03T15:31:52.454Z,8.2
2019-03-03T15:37:20.396Z,8.2
2019-03-03T15:42:49.291Z,8.2
2019-03-03T15:48:17.141Z,8.1
2019-03-03T15:53:46.117Z,8.1
2019-03-03T15:59:13.998Z,8
2019-03-03T16:04:41.839Z,8
2019-03-03T16:10:10.844Z,7.9
2019-03-03T16:15:38.583Z,7.9
2019-03-03T16:21:06.465Z,7.9
2019-03-03T16:26:34.368Z,7.8
2019-03-03T16:32:02.234Z,7.8
2019-03-03T16:37:30.572Z,7.8
2019-03-03T16:42:57.951Z,7.8
2019-03-03T16:48:25.808Z,7.7
2019-03-03T16:53:54.740Z,7.7
2019-03-03T16:59:23.565Z,7.7
2019-03-03T17:04:51.422Z,7.7
2019-03-03T17:10:19.305Z,7.6
2019-03-03T17:15:47.148Z,7.6
2019-03-03T17:21:15.992Z,7.6
2019-03-03T17:26:43.824Z,7.6
2019-03-03T17:32:12.725Z,7.6
2019-03-03T17:37:41.532Z,7.6
2019-03-03T17:43:09.413Z,7.6
2019-03-03T17:48:37.311Z,7.6
2019-03-03T17:54:05.103Z,7.6
2019-03-03T17:59:33.957Z,7.5
2019-03-03T18:05:02.817Z,7.5
2019-03-03T18:10:33.380Z,7.5
2019-03-03T18:15:59.479Z,7.5
2019-03-03T18:21:27.326Z,7.5
2019-03-03T18:26:55.230Z,7.5
2019-03-03T18:32:25.683Z,7.5
2019-03-03T18:37:51.580Z,7.4
2019-03-03T18:43:20.109Z,7.4
2019-03-03T18:48:47.634Z,7.4
2019-03-03T18:54:17.307Z,7.4
2019-03-03T18:59:44.253Z,7.4
2019-03-03T19:05:14.005Z,7.4
2019-03-03T19:10:44.207Z,7.4
2019-03-03T19:16:08.736Z,7.4
2019-03-03T19:21:36.598Z,7.4
2019-03-03T19:27:05.862Z,7.4
2019-03-03T19:32:34.303Z,7.4
2019-03-03T19:38:03.345Z,7.4
2019-03-03T19:43:31.984Z,7.5
2019-03-03T19:48:59.833Z,7.5
2019-03-03T19:54:27.683Z,7.6
2019-03-03T19:59:56.918Z,7.7
2019-03-03T20:05:25.360Z,7.9
2019-03-03T20:10:53.250Z,8.1
2019-03-03T20:16:21.269Z,8.2
2019-03-03T20:21:50.311Z,8.3
2019-03-03T20:27:19.017Z,8.4
2019-03-03T20:32:47.950Z,8.4
2019-03-03T20:38:16.833Z,8.5
2019-03-03T20:43:44.808Z,8.5
2019-03-03T20:49:14.381Z,8.5
2019-03-03T20:54:42.503Z,8.5
2019-03-03T21:00:11.927Z,8.5
2019-03-03T21:05:40.320Z,8.5
2019-03-03T21:11:06.932Z,8.5
2019-03-03T21:16:35.344Z,8.5
2019-03-03T21:22:03.654Z,8.5
2019-03-03T21:27:31.168Z,8.5
2019-03-03T21:33:00.443Z,8.5
2019-03-03T21:38:27.995Z,8.6
2019-03-03T21:43:55.962Z,8.6
2019-03-03T21:49:24.927Z,8.6
2019-03-03T21:54:53.201Z,8.6
2019-03-03T22:00:21.187Z,8.7
2019-03-03T22:05:51.220Z,8.7
2019-03-03T22:11:18.261Z,8.7
2019-03-03T22:16:45.583Z,8.7
2019-03-03T22:22:14.567Z,8.7
2019-03-03T22:27:42.473Z,8.8
2019-03-03T22:33:10.494Z,8.8
2019-03-03T22:38:39.499Z,8.8
2019-03-03T22:44:07.314Z,8.8
2019-03-03T22:49:35.227Z,8.8
2019-03-03T22:55:04.242Z,8.8
2019-03-03T23:00:32.207Z,8.8
2019-03-03T23:06:01.055Z,8.8
2019-03-03T23:11:30.041Z,8.8
2019-03-03T23:16:58.952Z,8.8
2019-03-03T23:22:26.901Z,8.8
2019-03-03T23:27:55.817Z,8.8
2019-03-03T23:33:24.792Z,8.8
2019-03-03T23:38:53.704Z,8.8
2019-03-03T23:44:21.679Z,8.8
2019-03-03T23:49:50.607Z,8.8
2019-03-03T23:55:18.672Z,8.8
